sensor_id;sensor_type;location;lat;lon;timestamp;P1;durP1;ratioP1;P2;durP2;ratioP2
34030;SDS011;20319;28.466;-16.274;2023-11-22T18:11:24;11.63;;;2.55;;
34030;SDS011;20319;28.466;-16.274;2023-11-22T18:13:53;9.18;;;2.70;;
34030;SDS011;20319;28.466;-16.274;2023-11-22T18:16:21;6.47;;;2.40;;
34030;SDS011;20319;28.466;-16.274;2023-11-22T18:18:47;8.63;;;2.60;;
34030;SDS011;20319;28.466;-16.274;2023-11-22T18:21:12;11.80;;;2.92;;
34030;SDS011;20319;28.466;-16.274;2023-11-22T18:23:41;12.70;;;2.58;;
34030;SDS011;20319;28.466;-16.274;2023-11-22T18:26:10;10.63;;;2.63;;
34030;SDS011;20319;28.466;-16.274;2023-11-22T18:28:37;9.82;;;2.60;;
34030;SDS011;20319;28.466;-16.274;2023-11-22T18:31:03;7.75;;;2.88;;
34030;SDS011;20319;28.466;-16.274;2023-11-22T18:33:30;6.30;;;2.20;;
34030;SDS011;20319;28.466;-16.274;2023-11-22T18:35:56;10.60;;;2.30;;
34030;SDS011;20319;28.466;-16.274;2023-11-22T18:38:22;7.20;;;2.17;;
34030;SDS011;20319;28.466;-16.274;2023-11-22T18:40:51;5.30;;;3.10;;
34030;SDS011;20319;28.466;-16.274;2023-11-22T18:43:17;5.13;;;2.83;;
34030;SDS011;20319;28.466;-16.274;2023-11-22T18:45:43;6.82;;;2.83;;
34030;SDS011;20319;28.466;-16.274;2023-11-22T18:48:13;7.97;;;2.85;;
34030;SDS011;20319;28.466;-16.274;2023-11-22T18:50:40;12.02;;;2.45;;
34030;SDS011;20319;28.466;-16.274;2023-11-22T18:53:06;5.85;;;2.30;;
34030;SDS011;20319;28.466;-16.274;2023-11-22T18:55:32;5.07;;;2.28;;
34030;SDS011;20319;28.466;-16.274;2023-11-22T18:57:58;6.28;;;2.10;;
34030;SDS011;20319;28.466;-16.274;2023-11-22T19:00:23;5.45;;;2.28;;
34030;SDS011;20319;28.466;-16.274;2023-11-22T19:02:49;5.55;;;2.20;;
34030;SDS011;20319;28.466;-16.274;2023-11-22T19:05:15;8.20;;;2.13;;
34030;SDS011;20319;28.466;-16.274;2023-11-22T19:07:41;5.90;;;2.50;;
34030;SDS011;20319;28.466;-16.274;2023-11-22T19:10:10;6.78;;;1.90;;
34030;SDS011;20319;28.466;-16.274;2023-11-22T19:12:36;5.28;;;2.00;;
34030;SDS011;20319;28.466;-16.274;2023-11-22T19:15:01;6.85;;;2.38;;
34030;SDS011;20319;28.466;-16.274;2023-11-22T19:17:28;5.80;;;2.33;;
34030;SDS011;20319;28.466;-16.274;2023-11-22T19:19:54;7.28;;;1.85;;
34030;SDS011;20319;28.466;-16.274;2023-11-22T19:22:19;6.97;;;2.03;;
34030;SDS011;20319;28.466;-16.274;2023-11-22T19:24:45;5.45;;;1.67;;
34030;SDS011;20319;28.466;-16.274;2023-11-22T19:27:11;6.72;;;1.75;;
34030;SDS011;20319;28.466;-16.274;2023-11-22T19:29:37;4.82;;;1.75;;
34030;SDS011;20319;28.466;-16.274;2023-11-22T19:32:03;4.45;;;1.80;;
34030;SDS011;20319;28.466;-16.274;2023-11-22T19:34:29;5.80;;;1.95;;
34030;SDS011;20319;28.466;-16.274;2023-11-22T19:36:55;4.75;;;1.90;;
34030;SDS011;20319;28.466;-16.274;2023-11-22T19:39:22;3.97;;;1.80;;
34030;SDS011;20319;28.466;-16.274;2023-11-22T19:41:49;4.45;;;1.90;;
34030;SDS011;20319;28.466;-16.274;2023-11-22T19:44:18;6.85;;;2.10;;
34030;SDS011;20319;28.466;-16.274;2023-11-22T19:46:48;6.05;;;1.92;;
34030;SDS011;20319;28.466;-16.274;2023-11-22T19:49:14;4.15;;;2.00;;
34030;SDS011;20319;28.466;-16.274;2023-11-22T19:51:42;3.65;;;2.08;;
34030;SDS011;20319;28.466;-16.274;2023-11-22T19:54:08;6.35;;;2.25;;
34030;SDS011;20319;28.466;-16.274;2023-11-22T19:56:34;7.25;;;2.00;;
34030;SDS011;20319;28.466;-16.274;2023-11-22T19:59:00;5.90;;;1.80;;
34030;SDS011;20319;28.466;-16.274;2023-11-22T20:01:26;6.57;;;1.90;;
34030;SDS011;20319;28.466;-16.274;2023-11-22T20:03:51;4.38;;;1.98;;
34030;SDS011;20319;28.466;-16.274;2023-11-22T20:06:17;3.03;;;1.73;;
34030;SDS011;20319;28.466;-16.274;2023-11-22T20:08:43;5.25;;;1.73;;
34030;SDS011;20319;28.466;-16.274;2023-11-22T20:11:08;6.97;;;2.30;;
34030;SDS011;20319;28.466;-16.274;2023-11-22T20:13:35;5.88;;;2.30;;
34030;SDS011;20319;28.466;-16.274;2023-11-22T20:16:01;4.85;;;2.30;;
34030;SDS011;20319;28.466;-16.274;2023-11-22T20:18:26;7.80;;;2.70;;
34030;SDS011;20319;28.466;-16.274;2023-11-22T20:20:52;6.10;;;3.05;;
34030;SDS011;20319;28.466;-16.274;2023-11-22T20:23:18;4.78;;;2.90;;
34030;SDS011;20319;28.466;-16.274;2023-11-22T20:25:45;3.47;;;2.00;;
34030;SDS011;20319;28.466;-16.274;2023-11-22T20:28:11;5.60;;;2.00;;
34030;SDS011;20319;28.466;-16.274;2023-11-22T20:30:36;3.65;;;2.13;;
34030;SDS011;20319;28.466;-16.274;2023-11-22T20:33:03;7.20;;;2.40;;
34030;SDS011;20319;28.466;-16.274;2023-11-22T20:35:28;8.73;;;2.55;;
34030;SDS011;20319;28.466;-16.274;2023-11-22T20:37:54;7.03;;;2.05;;
34030;SDS011;20319;28.466;-16.274;2023-11-22T20:40:20;4.78;;;1.92;;
34030;SDS011;20319;28.466;-16.274;2023-11-22T20:42:46;5.40;;;2.28;;
34030;SDS011;20319;28.466;-16.274;2023-11-22T20:45:11;5.57;;;1.90;;
34030;SDS011;20319;28.466;-16.274;2023-11-22T20:47:37;6.82;;;2.28;;
34030;SDS011;20319;28.466;-16.274;2023-11-22T20:50:05;8.52;;;2.70;;
34030;SDS011;20319;28.466;-16.274;2023-11-22T20:52:31;10.55;;;3.20;;
34030;SDS011;20319;28.466;-16.274;2023-11-22T20:54:57;9.85;;;3.08;;
34030;SDS011;20319;28.466;-16.274;2023-11-22T20:57:23;7.43;;;3.10;;
34030;SDS011;20319;28.466;-16.274;2023-11-22T20:59:49;8.68;;;3.05;;
34030;SDS011;20319;28.466;-16.274;2023-11-22T21:02:17;7.55;;;3.80;;
34030;SDS011;20319;28.466;-16.274;2023-11-22T21:04:43;14.10;;;5.88;;
34030;SDS011;20319;28.466;-16.274;2023-11-22T21:07:09;9.85;;;6.00;;
34030;SDS011;20319;28.466;-16.274;2023-11-22T21:09:35;15.88;;;7.65;;
34030;SDS011;20319;28.466;-16.274;2023-11-22T21:12:01;13.15;;;9.02;;
34030;SDS011;20319;28.466;-16.274;2023-11-22T21:14:27;11.68;;;8.52;;
34030;SDS011;20319;28.466;-16.274;2023-11-22T21:16:53;14.23;;;8.65;;
34030;SDS011;20319;28.466;-16.274;2023-11-22T21:19:19;14.02;;;9.60;;
34030;SDS011;20319;28.466;-16.274;2023-11-22T21:21:44;15.82;;;9.65;;
34030;SDS011;20319;28.466;-16.274;2023-11-22T21:24:13;16.23;;;12.07;;
34030;SDS011;20319;28.466;-16.274;2023-11-22T21:26:38;15.68;;;11.40;;
34030;SDS011;20319;28.466;-16.274;2023-11-22T21:29:04;15.95;;;12.88;;
34030;SDS011;20319;28.466;-16.274;2023-11-22T21:31:29;22.65;;;12.55;;
34030;SDS011;20319;28.466;-16.274;2023-11-22T21:33:56;16.95;;;10.57;;
34030;SDS011;20319;28.466;-16.274;2023-11-22T21:36:22;14.82;;;10.30;;
34030;SDS011;20319;28.466;-16.274;2023-11-22T21:38:47;14.70;;;9.60;;
34030;SDS011;20319;28.466;-16.274;2023-11-22T21:41:14;18.33;;;9.65;;
34030;SDS011;20319;28.466;-16.274;2023-11-22T21:43:40;16.17;;;9.35;;
34030;SDS011;20319;28.466;-16.274;2023-11-22T21:46:06;14.77;;;10.70;;
34030;SDS011;20319;28.466;-16.274;2023-11-22T21:48:33;18.45;;;11.18;;
34030;SDS011;20319;28.466;-16.274;2023-11-22T21:50:59;16.85;;;10.68;;
34030;SDS011;20319;28.466;-16.274;2023-11-22T21:53:25;15.23;;;11.13;;
34030;SDS011;20319;28.466;-16.274;2023-11-22T21:55:51;17.80;;;10.35;;
34030;SDS011;20319;28.466;-16.274;2023-11-22T21:58:17;15.45;;;9.68;;
34030;SDS011;20319;28.466;-16.274;2023-11-22T22:00:43;18.40;;;9.18;;
34030;SDS011;20319;28.466;-16.274;2023-11-22T22:03:09;18.92;;;10.32;;
34030;SDS011;20319;28.466;-16.274;2023-11-22T22:05:36;14.98;;;9.80;;
34030;SDS011;20319;28.466;-16.274;2023-11-22T22:08:03;15.02;;;9.82;;
34030;SDS011;20319;28.466;-16.274;2023-11-22T22:10:28;16.33;;;9.43;;
34030;SDS011;20319;28.466;-16.274;2023-11-22T22:12:54;12.73;;;7.35;;
34030;SDS011;20319;28.466;-16.274;2023-11-22T22:15:19;10.60;;;3.92;;
34030;SDS011;20319;28.466;-16.274;2023-11-22T22:17:46;8.23;;;4.40;;
34030;SDS011;20319;28.466;-16.274;2023-11-22T22:20:11;10.57;;;3.88;;
34030;SDS011;20319;28.466;-16.274;2023-11-22T22:22:37;5.15;;;3.10;;
34030;SDS011;20319;28.466;-16.274;2023-11-22T22:25:03;7.35;;;2.70;;
34030;SDS011;20319;28.466;-16.274;2023-11-22T22:27:29;6.45;;;2.10;;
34030;SDS011;20319;28.466;-16.274;2023-11-22T22:29:56;9.32;;;2.40;;
34030;SDS011;20319;28.466;-16.274;2023-11-22T22:32:22;7.07;;;2.40;;
34030;SDS011;20319;28.466;-16.274;2023-11-22T22:34:48;8.23;;;2.40;;
34030;SDS011;20319;28.466;-16.274;2023-11-22T22:37:14;6.35;;;2.13;;
34030;SDS011;20319;28.466;-16.274;2023-11-22T22:39:39;7.22;;;3.22;;
34030;SDS011;20319;28.466;-16.274;2023-11-22T22:42:05;4.47;;;1.90;;
34030;SDS011;20319;28.466;-16.274;2023-11-22T22:44:30;4.05;;;1.90;;
34030;SDS011;20319;28.466;-16.274;2023-11-22T22:46:56;5.20;;;2.30;;
34030;SDS011;20319;28.466;-16.274;2023-11-22T22:49:21;9.02;;;2.30;;
34030;SDS011;20319;28.466;-16.274;2023-11-22T22:51:47;3.85;;;1.92;;
34030;SDS011;20319;28.466;-16.274;2023-11-22T22:54:13;6.20;;;2.10;;
34030;SDS011;20319;28.466;-16.274;2023-11-22T22:56:39;10.40;;;2.17;;
34030;SDS011;20319;28.466;-16.274;2023-11-22T22:59:05;4.32;;;1.98;;
34030;SDS011;20319;28.466;-16.274;2023-11-22T23:01:31;5.28;;;2.15;;
34030;SDS011;20319;28.466;-16.274;2023-11-22T23:03:59;3.72;;;2.08;;
34030;SDS011;20319;28.466;-16.274;2023-11-22T23:06:25;5.95;;;2.20;;
34030;SDS011;20319;28.466;-16.274;2023-11-22T23:08:52;4.97;;;2.45;;
34030;SDS011;20319;28.466;-16.274;2023-11-22T23:11:21;3.70;;;1.90;;
34030;SDS011;20319;28.466;-16.274;2023-11-22T23:13:48;5.90;;;2.15;;
34030;SDS011;20319;28.466;-16.274;2023-11-22T23:16:14;5.93;;;1.98;;
34030;SDS011;20319;28.466;-16.274;2023-11-22T23:18:40;5.95;;;2.30;;
34030;SDS011;20319;28.466;-16.274;2023-11-22T23:21:09;5.80;;;2.00;;
34030;SDS011;20319;28.466;-16.274;2023-11-22T23:23:36;8.35;;;2.13;;
34030;SDS011;20319;28.466;-16.274;2023-11-22T23:26:02;5.82;;;2.25;;
34030;SDS011;20319;28.466;-16.274;2023-11-22T23:28:28;6.25;;;2.00;;
34030;SDS011;20319;28.466;-16.274;2023-11-22T23:30:55;6.60;;;2.17;;
34030;SDS011;20319;28.466;-16.274;2023-11-22T23:33:21;4.03;;;2.25;;
34030;SDS011;20319;28.466;-16.274;2023-11-22T23:35:47;8.38;;;2.53;;
34030;SDS011;20319;28.466;-16.274;2023-11-22T23:38:13;4.22;;;2.13;;
34030;SDS011;20319;28.466;-16.274;2023-11-22T23:40:40;5.45;;;2.10;;
34030;SDS011;20319;28.466;-16.274;2023-11-22T23:43:07;5.32;;;2.25;;
34030;SDS011;20319;28.466;-16.274;2023-11-22T23:45:33;4.55;;;2.08;;
34030;SDS011;20319;28.466;-16.274;2023-11-22T23:47:59;8.30;;;2.13;;
34030;SDS011;20319;28.466;-16.274;2023-11-22T23:50:25;6.78;;;2.22;;
34030;SDS011;20319;28.466;-16.274;2023-11-22T23:52:50;4.63;;;2.30;;
34030;SDS011;20319;28.466;-16.274;2023-11-22T23:55:18;6.32;;;2.08;;
34030;SDS011;20319;28.466;-16.274;2023-11-22T23:57:45;5.90;;;2.38;;
